Time;durP1;ratioP1;P1;durP2;ratioP2;P2;SDS_P1;SDS_P2;PMS_P1;PMS_P2;Temp;Humidity;BMP_temperature;BMP_pressure;BME280_temperature;BME280_humidity;BME280_pressure;Samples;Min_cycle;Max_cycle;Signal;HPM_P1;HPM_P2
2022/08/01 00:01:40;;;;;;;1.52;1.42;;;;;;;22.75;46.14;96679.06;4896621;29;20091;-80
2022/08/01 00:04:07;;;;;;;2.53;1.35;;;;;;;22.74;45.87;96678.25;4896904;29;20173;-79
2022/08/01 00:06:35;;;;;;;1.98;1.60;;;;;;;22.69;46.70;96674.75;4896694;29;20540;-79
2022/08/01 00:09:03;;;;;;;1.20;1.10;;;;;;;22.68;46.94;96676.63;4896821;29;20143;-81
2022/08/01 00:11:30;;;;;;;3.25;1.52;;;;;;;22.67;46.44;96679.53;4896585;29;20062;-79
2022/08/01 00:13:59;;;;;;;3.05;1.67;;;;;;;22.63;45.81;96682.72;4896441;29;20091;-79
2022/08/01 00:16:27;;;;;;;1.67;1.58;;;;;;;22.57;46.07;96675.75;4896720;29;20053;-80
2022/08/01 00:18:54;;;;;;;1.48;1.38;;;;;;;22.53;45.71;96677.31;4896706;29;20052;-79
2022/08/01 00:21:22;;;;;;;2.47;1.50;;;;;;;22.53;45.59;96677.31;4896416;29;20053;-79
2022/08/01 00:23:50;;;;;;;2.13;1.35;;;;;;;22.54;46.61;96673.63;4896497;29;20530;-79
2022/08/01 00:26:17;;;;;;;1.65;1.55;;;;;;;22.57;45.56;96682.94;4896855;29;20432;-80
2022/08/01 00:28:45;;;;;;;2.38;1.52;;;;;;;22.60;46.58;96680.56;4898330;29;20053;-80
2022/08/01 00:31:14;;;;;;;2.55;1.63;;;;;;;22.62;45.92;96688.28;4896500;29;20135;-79
2022/08/01 00:33:41;;;;;;;2.45;1.50;;;;;;;22.59;45.37;96686.94;4896380;29;20044;-79
2022/08/01 00:36:09;;;;;;;1.77;1.55;;;;;;;22.57;45.58;96686.41;4896501;29;20139;-79
2022/08/01 00:38:36;;;;;;;1.80;1.70;;;;;;;22.55;45.59;96685.84;4896586;29;20093;-80
2022/08/01 00:41:04;;;;;;;4.78;1.85;;;;;;;22.52;45.98;96686.38;4896521;29;20127;-79
2022/08/01 00:43:31;;;;;;;2.72;1.60;;;;;;;22.49;45.64;96681.53;4896942;29;20175;-81
2022/08/01 00:45:59;;;;;;;3.10;1.80;;;;;;;22.45;45.59;96693.75;4896463;29;20143;-80
2022/08/01 00:48:28;;;;;;;1.33;1.23;;;;;;;22.41;45.82;96692.66;4896483;29;20083;-80
2022/08/01 00:50:55;;;;;;;3.47;1.73;;;;;;;22.40;45.71;96689.19;4898648;29;20116;-80
2022/08/01 00:53:23;;;;;;;3.22;1.70;;;;;;;22.40;46.04;96685.75;4899400;29;20083;-79
2022/08/01 00:55:52;;;;;;;2.38;1.92;;;;;;;22.38;46.15;96685.19;4899522;29;20080;-79
2022/08/01 00:58:20;;;;;;;1.90;1.70;;;;;;;22.38;46.28;96685.19;4899677;29;20084;-80
2022/08/01 01:00:50;;;;;;;1.73;1.40;;;;;;;22.38;46.28;96683.34;4899337;29;20053;-79
2022/08/01 01:03:23;;;;;;;2.08;1.60;;;;;;;22.38;46.12;96680.69;4899682;29;20078;-80
2022/08/01 01:06:24;;;;;;;2.83;1.90;;;;;;;22.44;46.46;96683.38;4899343;29;20060;-80
2022/08/01 01:09:03;;;;;;;3.63;1.80;;;;;;;22.43;45.58;96685.22;4899694;29;20428;-81
2022/08/01 01:11:42;;;;;;;1.92;1.83;;;;;;;22.45;46.02;96693.75;4901174;29;20079;-81
2022/08/01 01:14:14;;;;;;;2.20;2.00;;;;;;;22.48;45.62;96684.47;4899788;29;20101;-80
2022/08/01 01:16:44;;;;;;;2.45;1.75;;;;;;;22.51;46.36;96695.38;4899619;29;20144;-80
2022/08/01 01:19:17;;;;;;;2.42;1.60;;;;;;;22.53;46.09;96701.25;4899184;29;20097;-79
2022/08/01 01:22:10;;;;;;;1.65;1.55;;;;;;;22.56;45.48;96694.63;4899137;29;20095;-79
2022/08/01 01:24:45;;;;;;;1.42;1.33;;;;;;;22.57;46.77;96705.00;4899212;29;20420;-79
2022/08/01 01:27:22;;;;;;;1.90;1.70;;;;;;;22.58;46.29;96693.31;4899158;29;20501;-79
2022/08/01 01:29:53;;;;;;;2.13;1.58;;;;;;;22.59;45.23;96700.22;4899055;29;20095;-80
2022/08/01 01:32:33;;;;;;;2.20;1.48;;;;;;;22.58;45.32;96700.47;4900074;29;20056;-80
2022/08/01 01:35:06;;;;;;;1.88;1.50;;;;;;;22.56;45.37;96700.72;4899068;29;20075;-79
2022/08/01 01:37:34;;;;;;;;;;;;;;;22.58;45.55;96706.59;4899729;29;20150;-80
2022/08/01 01:40:03;;;;;;;2.35;1.52;;;;;;;22.59;45.83;96702.09;4898932;29;19923;-79
2022/08/01 01:42:32;;;;;;;4.15;1.50;;;;;;;22.56;46.00;96703.38;4899088;29;20056;-79
2022/08/01 01:45:04;;;;;;;2.55;1.83;;;;;;;22.55;46.01;96696.47;4898840;29;20095;-80
2022/08/01 01:47:33;;;;;;;4.22;1.40;;;;;;;22.52;45.24;96702.31;4898610;29;20497;-79
2022/08/01 01:50:03;;;;;;;4.25;1.90;;;;;;;22.46;45.81;96699.88;4898455;29;20131;-80
2022/08/01 01:52:32;;;;;;;1.80;1.70;;;;;;;22.48;46.50;96709.19;4898946;29;20113;-79
2022/08/01 01:55:02;;;;;;;3.88;1.75;;;;;;;22.49;46.70;96705.47;4898619;29;20127;-80
2022/08/01 01:57:31;;;;;;;2.35;1.60;;;;;;;22.48;45.86;96697.75;4898497;29;20065;-79
2022/08/01 02:00:02;;;;;;;1.80;1.70;;;;;;;22.47;45.36;96704.94;4897691;29;20113;-77
2022/08/01 02:02:30;;;;;;;2.60;1.70;;;;;;;22.49;45.87;96708.13;4898998;29;20055;-80
2022/08/01 02:04:58;;;;;;;1.95;1.77;;;;;;;22.48;45.75;96706.53;4898799;29;20049;-80
2022/08/01 02:07:28;;;;;;;2.25;1.80;;;;;;;22.46;45.56;96708.66;4898790;29;20131;-80
2022/08/01 02:09:57;;;;;;;1.77;1.67;;;;;;;22.44;45.94;96708.09;4898336;29;20080;-79
2022/08/01 02:12:25;;;;;;;3.10;1.95;;;;;;;22.38;45.71;96712.56;4898178;29;20575;-79
2022/08/01 02:14:54;;;;;;;3.63;1.70;;;;;;;22.33;45.95;96717.84;4898261;29;20512;-79
2022/08/01 02:17:25;;;;;;;1.80;1.70;;;;;;;22.30;46.06;96718.38;4898313;29;20049;-79
2022/08/01 02:19:54;;;;;;;1.85;1.75;;;;;;;22.27;46.41;96720.72;4899881;29;20076;-81
2022/08/01 02:22:28;;;;;;;4.53;2.00;;;;;;;22.26;46.41;96713.78;4900418;29;20048;-81
2022/08/01 02:25:00;;;;;;;2.00;1.80;;;;;;;22.27;47.30;96726.03;4900098;29;20075;-81
2022/08/01 02:27:30;;;;;;;;;;;;;;;22.29;46.99;96723.94;4899341;29;20151;-80
2022/08/01 02:30:00;;;;;;;1.92;1.60;;;;;;;22.28;46.46;96719.66;4898409;29;19967;-78
2022/08/01 02:32:32;;;;;;;2.33;1.80;;;;;;;22.21;46.60;96720.66;4903065;29;20143;-80
2022/08/01 02:45:36;;;;;;;2.45;1.98;;;;;;;22.00;47.01;96721.53;4870915;29;20056;-75
2022/08/01 02:48:11;;;;;;;1.80;1.70;;;;;;;21.95;47.19;96724.13;4879779;29;20145;-75
2022/08/01 02:50:40;;;;;;;2.22;2.03;;;;;;;21.88;47.08;96729.63;4879583;29;20139;-75
2022/08/01 02:53:10;;;;;;;3.22;2.10;;;;;;;21.81;47.62;96727.19;4879056;29;20063;-75
2022/08/01 02:55:40;;;;;;;5.25;2.58;;;;;;;21.74;47.77;96731.91;4879233;29;20053;-75
2022/08/01 02:58:09;;;;;;;2.35;1.70;;;;;;;21.69;47.81;96723.88;4880750;29;20140;-75
2022/08/01 03:00:40;;;;;;;3.10;2.13;;;;;;;21.70;47.96;96722.81;4880306;29;20091;-75
2022/08/01 03:03:12;;;;;;;2.10;2.00;;;;;;;21.68;47.70;96730.22;4878830;29;20055;-75
2022/08/01 03:05:41;;;;;;;1.67;1.58;;;;;;;21.68;48.06;96730.22;4880990;29;20084;-75
2022/08/01 03:08:10;;;;;;;2.17;1.83;;;;;;;21.65;48.01;96730.75;4898549;29;20076;-75
2022/08/01 03:10:45;;;;;;;2.97;2.42;;;;;;;21.65;47.97;96724.63;4897691;29;20112;-75
2022/08/01 03:13:14;;;;;;;2.83;1.70;;;;;;;21.63;47.86;96735.50;4896361;29;20053;-75
2022/08/01 03:15:43;;;;;;;2.20;2.00;;;;;;;21.58;48.21;96735.41;4896756;29;20283;-75
2022/08/01 03:18:15;;;;;;;2.17;1.98;;;;;;;21.52;48.49;96739.09;4887748;29;20084;-75
2022/08/01 03:20:44;;;;;;;3.83;2.07;;;;;;;21.46;48.38;96737.41;4880066;29;20137;-75
2022/08/01 03:23:13;;;;;;;2.47;1.95;;;;;;;21.42;48.76;96734.44;4879685;29;20280;-75
2022/08/01 03:25:43;;;;;;;4.53;2.50;;;;;;;21.36;48.95;96738.88;4879400;29;20057;-75
2022/08/01 03:28:14;;;;;;;2.38;1.83;;;;;;;21.34;49.10;96738.31;4878995;29;20083;-75
2022/08/01 03:30:44;;;;;;;2.08;1.92;;;;;;;21.36;49.20;96738.06;4878859;29;20140;-75
2022/08/01 03:33:13;;;;;;;2.47;2.00;;;;;;;21.38;48.83;96741.28;4878806;29;20066;-76
2022/08/01 03:35:47;;;;;;;3.35;1.63;;;;;;;21.40;49.29;96736.50;4878949;29;20056;-76
2022/08/01 03:38:19;;;;;;;4.75;2.03;;;;;;;21.45;49.27;96738.47;4879259;29;20084;-75
2022/08/01 03:40:49;;;;;;;;;;;;;;;21.49;49.04;96742.22;4878924;29;20506;-75
2022/08/01 03:43:21;;;;;;;2.67;2.10;;;;;;;21.48;49.04;96743.28;4878713;29;19963;-75
2022/08/01 03:45:51;;;;;;;1.70;1.60;;;;;;;21.47;49.04;96745.16;4879111;29;20590;-75
2022/08/01 03:48:28;;;;;;;3.15;1.88;;;;;;;21.51;49.00;96745.44;4878830;29;20572;-76
2022/08/01 03:50:57;;;;;;;6.43;1.98;;;;;;;21.51;48.87;96745.44;4878685;29;20088;-75
2022/08/01 03:53:29;;;;;;;2.92;2.20;;;;;;;21.49;49.23;96747.53;4879248;29;20172;-75
2022/08/01 03:55:59;;;;;;;2.25;1.98;;;;;;;21.42;49.27;96742.41;4879145;29;20045;-75
2022/08/01 03:58:28;;;;;;;2.05;1.83;;;;;;;21.36;49.24;96748.66;4878687;29;20144;-75
2022/08/01 04:00:56;;;;;;;4.43;2.35;;;;;;;21.31;49.54;96745.97;4878832;29;20095;-75
2022/08/01 04:03:26;;;;;;;5.47;2.40;;;;;;;21.24;49.61;96750.66;4878836;29;20591;-76
2022/08/01 04:05:54;;;;;;;3.00;2.13;;;;;;;21.17;50.01;96748.97;4878978;29;20143;-75
2022/08/01 04:08:21;;;;;;;2.38;2.10;;;;;;;21.13;50.19;96744.41;4878706;29;20144;-75
2022/08/01 04:10:58;;;;;;;2.30;2.10;;;;;;;21.11;50.05;96751.81;4878308;29;20057;-76
2022/08/01 04:13:25;;;;;;;3.08;1.90;;;;;;;21.09;50.25;96753.91;4878882;29;20098;-76
2022/08/01 04:16:04;;;;;;;4.38;2.13;;;;;;;21.10;50.15;96758.97;4878741;29;20052;-75
2022/08/01 04:18:33;;;;;;;2.28;2.08;;;;;;;21.14;50.40;96753.97;4878610;29;20060;-75
2022/08/01 04:21:00;;;;;;;2.75;2.28;;;;;;;21.16;50.28;96757.19;4877999;29;20137;-75
2022/08/01 04:23:31;;;;;;;2.50;2.30;;;;;;;21.17;50.11;96756.94;4879332;29;20057;-75
2022/08/01 04:26:02;;;;;;;4.95;2.45;;;;;;;21.19;50.48;96764.66;4882604;29;20140;-75
2022/08/01 04:28:32;;;;;;;3.47;2.05;;;;;;;21.19;50.66;96765.47;4882369;29;20081;-75
2022/08/01 04:31:00;;;;;;;3.47;2.40;;;;;;;21.22;50.58;96774.78;4882011;29;20049;-75
2022/08/01 04:33:30;;;;;;;3.03;2.13;;;;;;;21.23;50.60;96776.41;4882421;29;20049;-75
2022/08/01 04:36:02;;;;;;;3.70;2.22;;;;;;;21.23;50.64;96779.03;4881802;29;20087;-76
2022/08/01 04:38:34;;;;;;;3.85;2.20;;;;;;;21.23;50.56;96776.41;4882071;29;20057;-75
2022/08/01 04:41:02;;;;;;;4.10;2.20;;;;;;;21.22;50.41;96774.78;4882004;29;20052;-76
2022/08/01 04:43:36;;;;;;;2.70;2.10;;;;;;;21.25;50.80;96779.56;4881362;29;20521;-75
2022/08/01 04:46:04;;;;;;;2.58;1.92;;;;;;;21.28;50.97;96771.16;4881496;29;20049;-75
2022/08/01 04:48:32;;;;;;;4.40;2.38;;;;;;;21.34;51.09;96777.31;4881625;29;20084;-75
2022/08/01 04:51:01;;;;;;;3.45;2.40;;;;;;;21.39;50.89;96778.19;4881643;29;20095;-75
2022/08/01 04:53:32;;;;;;;3.33;2.00;;;;;;;21.44;50.92;96785.44;4881653;29;20048;-75
2022/08/01 04:56:00;;;;;;;2.58;2.10;;;;;;;21.48;50.89;96783.09;4881397;29;20065;-75
2022/08/01 04:58:27;;;;;;;1.95;1.85;;;;;;;21.52;50.80;96777.03;4881308;29;20057;-75
2022/08/01 05:00:55;;;;;;;3.97;2.00;;;;;;;21.55;50.83;96783.72;4881126;29;20090;-76
2022/08/01 05:03:23;;;;;;;8.82;6.60;;;;;;;21.58;50.62;96783.19;4881083;29;20528;-75
2022/08/01 05:05:50;;;;;;;6.85;2.80;;;;;;;21.60;51.00;96789.88;4881218;29;20095;-75
2022/08/01 05:08:19;;;;;;;5.95;2.42;;;;;;;21.66;50.84;96792.59;4883461;29;20091;-76
2022/08/01 05:10:46;;;;;;;4.70;2.10;;;;;;;21.67;50.98;96789.69;4891465;29;20530;-75
2022/08/01 05:13:14;;;;;;;2.90;2.17;;;;;;;21.71;50.84;96797.94;4891925;29;20084;-75
2022/08/01 05:15:41;;;;;;;3.13;2.10;;;;;;;;;;4880943;29;20418;-75
2022/08/01 05:18:09;;;;;;;7.05;2.70;;;;;;;21.76;50.92;96798.81;4880842;29;20472;-75
2022/08/01 05:20:37;;;;;;;3.40;2.35;;;;;;;21.76;50.39;96795.38;4880506;29;20135;-75
2022/08/01 05:23:05;;;;;;;2.83;2.38;;;;;;;21.78;51.12;96795.94;4880640;29;20585;-75
2022/08/01 05:25:39;;;;;;;3.85;2.20;;;;;;;21.80;51.18;96796.50;4880794;29;20057;-76
2022/08/01 05:28:25;;;;;;;2.65;2.22;;;;;;;21.80;50.82;96791.97;4880684;29;20136;-75
2022/08/01 05:30:54;;;;;;;3.42;2.10;;;;;;;21.82;50.89;96794.34;4880615;29;20060;-76
2022/08/01 05:33:22;;;;;;;3.22;2.65;;;;;;;21.82;50.74;96799.66;4880818;29;20120;-75
2022/08/01 05:35:49;;;;;;;4.30;3.45;;;;;;;21.84;51.10;96799.44;4880057;29;20092;-75
2022/08/01 05:38:17;;;;;;;3.03;2.33;;;;;;;21.86;50.83;96799.97;4880428;29;20136;-75
2022/08/01 05:40:46;;;;;;;2.25;2.00;;;;;;;21.87;50.96;96797.09;4880427;29;20497;-75
2022/08/01 05:43:13;;;;;;;3.50;2.80;;;;;;;21.90;50.73;96793.13;4880648;29;20089;-75
2022/08/01 05:45:42;;;;;;;3.33;2.17;;;;;;;21.91;50.84;96792.06;4880716;29;20424;-75
2022/08/01 05:48:09;;;;;;;2.90;2.00;;;;;;;21.95;50.94;96796.66;4880417;29;20139;-75
2022/08/01 05:50:37;;;;;;;2.38;2.17;;;;;;;21.99;50.95;96800.38;4880080;29;20049;-75
2022/08/01 05:53:04;;;;;;;3.20;2.20;;;;;;;22.03;51.46;96798.03;4880374;29;20155;-75
2022/08/01 05:55:32;;;;;;;3.08;2.05;;;;;;;22.09;51.43;96799.72;4880144;29;20145;-75
2022/08/01 05:58:01;;;;;;;4.50;2.22;;;;;;;22.14;51.21;96802.41;4880334;29;20135;-75
2022/08/01 06:00:29;;;;;;;5.28;2.50;;;;;;;22.18;51.11;96803.50;4879854;29;20084;-75
2022/08/01 06:02:56;;;;;;;4.47;2.42;;;;;;;22.24;50.79;96798.28;4880151;29;20052;-75
2022/08/01 06:05:24;;;;;;;3.00;1.92;;;;;;;22.26;50.77;96790.84;4880103;29;20136;-75
2022/08/01 06:07:51;;;;;;;2.50;2.00;;;;;;;22.33;50.81;96788.81;4880231;29;20061;-75
2022/08/01 06:10:19;;;;;;;3.30;1.92;;;;;;;22.38;50.86;96792.28;4880048;29;20524;-75
2022/08/01 06:12:46;;;;;;;3.90;1.98;;;;;;;22.45;50.57;96797.41;4880139;29;20081;-75
2022/08/01 06:15:15;;;;;;;2.35;1.80;;;;;;;22.50;50.13;96799.31;4879551;29;20053;-75
2022/08/01 06:17:43;;;;;;;2.10;1.95;;;;;;;22.54;50.30;96795.91;4879914;29;20052;-75
2022/08/01 06:20:11;;;;;;;2.38;1.95;;;;;;;22.59;50.47;96806.56;4879617;29;20541;-76
2022/08/01 06:22:38;;;;;;;2.50;1.70;;;;;;;22.63;50.11;96805.03;4898795;29;20033;-76
2022/08/01 06:25:08;;;;;;;2.83;2.00;;;;;;;22.69;50.07;96805.06;4897083;29;20057;-76
2022/08/01 06:27:36;;;;;;;2.55;1.67;;;;;;;22.75;50.01;96801.38;4879838;29;20080;-75
2022/08/01 06:30:04;;;;;;;5.95;2.33;;;;;;;22.80;50.25;96809.38;4879347;29;20433;-75
2022/08/01 06:32:33;;;;;;;4.15;2.03;;;;;;;22.86;50.13;96807.56;4879745;29;20081;-75
2022/08/01 06:35:01;;;;;;;2.10;1.90;;;;;;;22.91;50.39;96819.03;4879807;29;20204;-75
2022/08/01 06:37:29;;;;;;;5.63;2.13;;;;;;;22.94;50.04;96813.22;4879579;29;20063;-75
2022/08/01 06:40:00;;;;;;;3.05;2.10;;;;;;;22.98;50.08;96814.31;4879510;29;20445;-75
2022/08/01 06:42:28;;;;;;;2.67;2.25;;;;;;;23.03;50.15;96809.06;4879743;29;20085;-75
2022/08/01 06:44:56;;;;;;;4.03;2.60;;;;;;;23.07;50.07;96820.00;4878612;29;20495;-75
2022/08/01 06:47:24;;;;;;;3.92;2.50;;;;;;;23.10;49.80;96818.69;4878377;29;20049;-75
2022/08/01 06:49:52;;;;;;;6.18;2.75;;;;;;;23.13;50.24;96818.16;4878459;29;20132;-75
2022/08/01 06:52:20;;;;;;;7.95;5.75;;;;;;;23.16;49.97;96809.69;4878757;29;20462;-75
2022/08/01 06:54:47;;;;;;;3.85;2.78;;;;;;;23.20;50.30;96808.09;4898934;29;20350;-76
2022/08/01 06:57:15;;;;;;;2.63;2.30;;;;;;;23.25;49.91;96808.13;4900271;29;20049;-76
2022/08/01 06:59:43;;;;;;;5.43;3.15;;;;;;;23.30;49.95;96813.47;4891467;29;20057;-75
2022/08/01 07:02:21;;;;;;;2.42;2.15;;;;;;;23.36;49.71;96812.44;4880515;29;20418;-75
2022/08/01 07:04:49;;;;;;;4.25;3.88;;;;;;;23.42;49.96;96800.75;4878833;29;20136;-75
2022/08/01 07:07:18;;;;;;;2.65;2.45;;;;;;;23.49;49.61;96810.38;4878530;29;20479;-75
2022/08/01 07:09:45;;;;;;;3.45;1.77;;;;;;;23.53;49.90;96803.47;4878475;29;20052;-76
2022/08/01 07:12:13;;;;;;;1.55;1.45;;;;;;;23.55;49.45;96809.31;4877828;29;20537;-75
2022/08/01 07:14:40;;;;;;;3.40;2.13;;;;;;;23.56;49.35;96801.09;4877985;29;20053;-75
2022/08/01 07:17:08;;;;;;;1.40;1.30;;;;;;;23.58;49.44;96804.28;4877801;29;20530;-75
2022/08/01 07:19:36;;;;;;;2.25;2.05;;;;;;;23.60;49.73;96802.16;4878317;29;20096;-76
2022/08/01 07:22:05;;;;;;;3.08;1.98;;;;;;;23.62;49.47;96805.38;4877462;29;20053;-75
2022/08/01 07:24:34;;;;;;;2.30;1.65;;;;;;;23.65;49.21;96804.03;4877713;29;20083;-75
2022/08/01 07:27:02;;;;;;;4.32;2.20;;;;;;;23.68;49.05;96803.53;4878171;29;20417;-75
2022/08/01 07:29:49;;;;;;;2.58;1.77;;;;;;;23.74;49.10;96807.00;4878165;29;20049;-75
2022/08/01 07:32:17;;;;;;;2.17;1.70;;;;;;;23.80;49.03;96803.34;4877514;29;20061;-76
2022/08/01 07:34:44;;;;;;;1.73;1.63;;;;;;;23.83;49.12;96800.97;4877778;29;20132;-75
2022/08/01 07:37:12;;;;;;;3.63;1.50;;;;;;;23.88;49.09;96810.84;4877818;29;20063;-76
2022/08/01 07:39:41;;;;;;;4.32;1.65;;;;;;;23.96;49.36;96812.16;4877980;29;20054;-78
2022/08/01 07:42:08;;;;;;;2.92;1.05;;;;;;;24.03;48.63;96799.41;4877611;29;20092;-76
2022/08/01 07:44:37;;;;;;;1.02;0.93;;;;;;;24.08;48.13;96802.09;4844135;29;1017909;-76
2022/08/01 07:47:05;;;;;;;2.53;1.17;;;;;;;24.16;48.05;96798.91;4878789;29;20053;-75
2022/08/01 07:49:32;;;;;;;1.23;0.98;;;;;;;24.22;48.20;96799.72;4878978;29;20436;-76
2022/08/01 07:52:06;;;;;;;28.38;3.45;;;;;;;24.28;47.99;96803.97;4878609;29;20061;-76
2022/08/01 07:54:34;;;;;;;4.13;1.15;;;;;;;24.34;47.65;96802.13;4878507;29;20057;-76
2022/08/01 07:57:04;;;;;;;3.13;1.30;;;;;;;24.43;47.85;96808.53;4878302;29;20132;-76
2022/08/01 07:59:31;;;;;;;2.05;1.52;;;;;;;24.52;47.58;96806.97;4881283;29;20049;-76
2022/08/01 08:01:59;;;;;;;1.65;1.55;;;;;;;24.59;47.33;96812.84;4882166;29;20128;-74
2022/08/01 08:04:28;;;;;;;1.58;1.30;;;;;;;24.67;47.19;96798.97;4882644;29;20140;-74
2022/08/01 08:06:56;;;;;;;3.45;1.67;;;;;;;24.74;47.45;96801.38;4882765;29;20088;-74
2022/08/01 08:09:23;;;;;;;2.72;1.90;;;;;;;24.81;47.38;96799.22;4882749;29;20084;-74
2022/08/01 08:11:51;;;;;;;1.80;1.65;;;;;;;24.87;47.02;96800.03;4882508;29;20103;-74
2022/08/01 08:14:22;;;;;;;2.97;1.90;;;;;;;24.91;47.41;96792.31;4882196;29;20076;-74
2022/08/01 08:16:59;;;;;;;1.85;1.60;;;;;;;24.99;47.05;96789.88;4882257;29;20131;-76
2022/08/01 08:19:28;;;;;;;1.60;1.48;;;;;;;25.04;46.94;96792.53;4882245;29;20057;-76
2022/08/01 08:22:05;;;;;;;3.17;1.42;;;;;;;25.13;46.83;96800.00;4881706;29;20501;-74
2022/08/01 08:24:34;;;;;;;3.13;1.65;;;;;;;25.21;46.73;96786.94;4882005;29;20056;-74
2022/08/01 08:27:02;;;;;;;2.72;1.58;;;;;;;25.31;46.56;96790.63;4881987;29;20045;-74
2022/08/01 08:29:32;;;;;;;1.65;1.55;;;;;;;25.39;46.07;96788.22;4882184;29;20501;-74
2022/08/01 08:32:01;;;;;;;3.67;1.40;;;;;;;25.45;46.13;96797.00;4881981;29;20087;-74
2022/08/01 08:34:29;;;;;;;2.70;1.55;;;;;;;25.49;45.82;96809.56;4881903;29;20135;-75
2022/08/01 08:36:57;;;;;;;2.58;1.98;;;;;;;25.55;46.21;96798.84;4881898;29;20139;-74
2022/08/01 08:39:26;;;;;;;1.65;1.55;;;;;;;25.58;46.45;96796.44;4881781;29;20045;-75
2022/08/01 08:41:54;;;;;;;3.38;1.60;;;;;;;25.65;46.19;96790.78;4881076;29;20072;-75
2022/08/01 09:57:30;;;;;;;2.80;1.50;;;;;;;26.73;42.84;96796.31;4971684;23;20564;-77
2022/08/01 10:00:00;;;;;;;4.85;1.42;;;;;;;26.78;42.48;96800.81;4898948;29;20572;-77
2022/08/01 10:02:34;;;;;;;2.33;1.60;;;;;;;26.81;42.69;96789.56;4899169;29;20052;-76
2022/08/01 10:05:03;;;;;;;2.67;1.38;;;;;;;26.80;42.68;96788.75;4899172;29;20048;-76
2022/08/01 10:07:36;;;;;;;0.93;0.80;;;;;;;26.82;42.71;96785.78;4898898;29;20061;-77
2022/08/01 11:17:47;;;;;;;1.33;1.23;;;;;;;27.55;39.45;96752.66;5287663;23;20037;-84
2022/08/01 12:57:32;;;;;;;2.00;1.20;;;;;;;28.09;36.76;96715.72;5200827;23;20043;-83
2022/08/01 13:00:27;;;;;;;2.30;2.10;;;;;;;28.07;37.44;96716.00;4925503;29;20047;-85
2022/08/01 13:35:46;;;;;;;1.23;1.13;;;;;;;27.88;37.47;96689.22;1346592;23;20309;-80
2022/08/01 13:47:29;;;;;;;1.40;0.77;;;;;;;27.91;36.92;96683.28;5053966;23;20111;-76
2022/08/01 13:50:00;;;;;;;1.58;0.70;;;;;;;27.89;36.66;96685.44;4932783;29;20075;-76
2022/08/01 13:52:30;;;;;;;3.47;0.80;;;;;;;27.85;36.74;96681.75;4933801;29;20051;-75
2022/08/01 13:54:57;;;;;;;1.25;0.75;;;;;;;27.82;37.22;96682.31;4918729;29;20099;-72
2022/08/01 13:57:25;;;;;;;0.60;0.60;;;;;;;27.80;36.76;96679.13;4919228;29;20071;-72
2022/08/01 14:00:05;;;;;;;2.60;0.80;;;;;;;27.79;36.71;96679.41;4898782;29;20512;-77
2022/08/01 14:02:33;;;;;;;0.90;0.90;;;;;;;27.77;36.73;96681.59;4899654;29;20048;-76
2022/08/01 14:05:01;;;;;;;2.45;1.00;;;;;;;27.77;37.09;96678.91;4899867;29;20098;-78
2022/08/01 14:07:30;;;;;;;1.10;1.00;;;;;;;27.78;37.04;96678.63;4916533;29;20591;-76
2022/08/01 14:09:57;;;;;;;2.42;0.60;;;;;;;27.81;36.62;96672.66;4905888;29;20131;-77
2022/08/01 14:12:45;;;;;;;1.10;1.00;;;;;;;27.82;36.65;96663.56;4906740;29;20067;-76
2022/08/01 14:15:14;;;;;;;3.10;0.90;;;;;;;27.83;36.92;96670.50;4923713;29;20053;-76
2022/08/01 14:18:02;;;;;;;0.73;0.68;;;;;;;27.85;37.02;96668.34;4907013;29;20048;-76
2022/08/01 14:20:32;;;;;;;1.15;0.68;;;;;;;27.87;37.37;96654.66;4904002;29;20088;-76
2022/08/01 14:23:01;;;;;;;0.82;0.82;;;;;;;27.90;38.02;96665.59;4918136;29;20062;-76
2022/08/01 14:25:29;;;;;;;1.08;0.80;;;;;;;27.96;37.62;96670.88;4910055;29;20541;-76
2022/08/01 14:28:17;;;;;;;1.65;0.63;;;;;;;28.01;36.76;96674.28;4900972;29;20049;-75
2022/08/01 14:30:45;;;;;;;1.15;0.73;;;;;;;28.06;37.55;96668.06;4907340;29;20087;-75
2022/08/01 14:33:13;;;;;;;2.60;0.77;;;;;;;28.09;36.77;96672.81;4904955;29;20135;-76
2022/08/01 14:35:41;;;;;;;2.28;1.08;;;;;;;28.12;36.45;96666.88;4917077;29;20086;-76
2022/08/01 14:38:30;;;;;;;1.10;0.80;;;;;;;28.11;36.18;96671.44;4907394;29;20053;-76
2022/08/01 14:41:03;;;;;;;0.82;0.70;;;;;;;28.09;36.45;96673.59;4897578;29;20056;-76
2022/08/01 14:43:31;;;;;;;2.03;0.90;;;;;;;28.07;36.77;96670.41;4905729;29;20056;-76
2022/08/01 14:46:00;;;;;;;1.10;0.80;;;;;;;28.07;36.66;96670.41;4914982;29;20147;-76
2022/08/01 14:48:28;;;;;;;0.57;0.57;;;;;;;28.09;36.87;96676.28;4916438;29;20128;-76
2022/08/01 14:50:56;;;;;;;0.68;0.68;;;;;;;28.10;37.11;96669.84;4914864;29;20048;-76
2022/08/01 14:53:24;;;;;;;0.73;0.55;;;;;;;28.08;35.93;96672.03;4911314;29;20135;-75
2022/08/01 14:55:53;;;;;;;0.75;0.70;;;;;;;28.03;36.13;96673.97;4897307;29;20161;-76
2022/08/01 14:58:20;;;;;;;1.10;0.50;;;;;;;28.02;35.99;96669.72;4900677;29;20086;-76
2022/08/01 15:00:48;;;;;;;0.80;0.80;;;;;;;28.02;36.12;96669.72;4915891;29;20094;-75
2022/08/01 15:03:16;;;;;;;0.75;0.73;;;;;;;28.02;35.63;96673.19;4913414;29;20044;-78
2022/08/01 15:05:43;;;;;;;0.50;0.50;;;;;;;28.00;36.15;96678.03;4899016;29;20081;-76
2022/08/01 15:08:11;;;;;;;0.80;0.80;;;;;;;27.97;36.21;96675.97;4917743;29;20146;-76
2022/08/01 15:10:38;;;;;;;3.30;0.80;;;;;;;27.92;36.18;96668.81;4904017;29;20505;-76
2022/08/01 15:13:07;;;;;;;2.60;0.70;;;;;;;27.89;36.53;96676.63;4897397;29;20056;-76
2022/08/01 15:15:35;;;;;;;1.60;0.70;;;;;;;27.87;37.18;96674.22;4914824;29;20099;-76
2022/08/01 15:18:02;;;;;;;0.82;0.57;;;;;;;27.87;36.48;96671.53;4909287;29;20052;-75
2022/08/01 15:20:30;;;;;;;0.85;0.70;;;;;;;27.87;36.30;96666.19;4915876;29;20135;-76
2022/08/01 15:22:57;;;;;;;0.93;0.60;;;;;;;27.88;36.67;96672.34;4913155;29;20087;-76
2022/08/01 15:25:25;;;;;;;0.60;0.50;;;;;;;27.88;36.17;96673.16;4902060;29;20138;-76
2022/08/01 15:28:09;;;;;;;1.63;0.60;;;;;;;27.88;36.13;96675.81;4898000;29;20509;-75
2022/08/01 15:30:36;;;;;;;0.90;0.88;;;;;;;27.88;36.38;96675.81;4897022;29;20064;-75
2022/08/01 15:33:04;;;;;;;0.57;0.50;;;;;;;27.91;36.46;96667.19;4905993;29;20489;-76
2022/08/01 15:35:32;;;;;;;0.50;0.50;;;;;;;27.95;35.98;96667.41;4915547;29;20170;-77
2022/08/01 15:37:59;;;;;;;0.75;0.60;;;;;;;27.95;35.84;96672.78;4900855;29;20106;-75
2022/08/01 15:40:28;;;;;;;1.20;0.70;;;;;;;27.98;35.92;96674.84;4897883;29;20056;-76
2022/08/01 15:42:55;;;;;;;1.15;1.05;;;;;;;27.99;36.29;96672.97;4897087;29;20099;-76
2022/08/01 15:45:26;;;;;;;1.48;0.57;;;;;;;28.01;36.31;96673.47;4905301;29;20576;-76
2022/08/01 15:48:13;;;;;;;1.63;1.33;;;;;;;28.02;36.36;96667.03;4915376;29;20048;-77
2022/08/01 15:50:41;;;;;;;1.25;0.80;;;;;;;28.00;36.15;96669.22;4913945;29;20063;-76
2022/08/01 15:53:08;;;;;;;1.80;0.70;;;;;;;27.98;36.05;96669.50;4915728;29;20199;-76
2022/08/01 15:55:36;;;;;;;1.38;0.80;;;;;;;27.97;36.03;96672.47;4914104;29;20144;-76
2022/08/01 15:58:05;;;;;;;0.85;0.70;;;;;;;27.98;35.86;96677.53;4915554;29;20060;-76
2022/08/01 16:00:34;;;;;;;0.47;0.45;;;;;;;27.98;36.24;96679.44;4905913;29;20131;-76
2022/08/01 16:03:06;;;;;;;0.82;0.50;;;;;;;27.99;36.28;96672.97;4896693;29;20064;-76
2022/08/01 16:05:35;;;;;;;1.63;0.60;;;;;;;27.98;35.70;96666.81;4901782;29;20561;-78
2022/08/01 16:08:10;;;;;;;0.75;0.75;;;;;;;27.99;35.85;96664.94;4902015;29;20056;-77
2022/08/01 16:10:37;;;;;;;4.90;0.70;;;;;;;27.96;35.94;96662.84;4897306;29;20084;-76
2022/08/01 16:13:05;;;;;;;1.48;0.75;;;;;;;27.98;35.99;96660.66;4898334;29;20150;-76
2022/08/01 16:15:35;;;;;;;0.40;0.40;;;;;;;28.00;36.54;96663.84;4899451;29;20504;-77
2022/08/01 16:18:05;;;;;;;0.90;0.85;;;;;;;28.02;36.62;96661.69;4909921;29;20436;-77
2022/08/01 16:20:32;;;;;;;1.33;0.70;;;;;;;28.03;36.13;96658.72;4908330;29;20053;-76
2022/08/01 16:23:00;;;;;;;1.85;0.60;;;;;;;28.02;35.78;96665.16;4900123;29;20056;-76
2022/08/01 16:25:27;;;;;;;0.73;0.73;;;;;;;28.00;35.91;96661.16;4905500;29;20048;-76
2022/08/01 16:27:55;;;;;;;0.77;0.65;;;;;;;27.99;36.27;96663.06;4918896;29;20556;-77
2022/08/01 16:30:23;;;;;;;0.68;0.68;;;;;;;27.93;36.24;96659.66;4918561;29;20087;-76
2022/08/01 16:32:52;;;;;;;0.88;0.70;;;;;;;27.91;36.00;96664.50;4919119;29;20052;-76
2022/08/01 16:35:22;;;;;;;1.45;0.90;;;;;;;27.88;36.19;96658.94;4913352;29;20063;-76
2022/08/01 16:37:59;;;;;;;1.92;1.75;;;;;;;27.83;35.97;96654.41;4899987;29;20106;-75